sensor_id;sensor_type;location;lat;lon;timestamp;P1;durP1;ratioP1;P2;durP2;ratioP2
1831;SDS011;1680;48.106;11.708;2022-07-22T00:02:10;18.23;;;16.63;;
1831;SDS011;1680;48.106;11.708;2022-07-22T00:04:36;20.20;;;18.47;;
1831;SDS011;1680;48.106;11.708;2022-07-22T00:07:03;20.27;;;18.57;;
1831;SDS011;1680;48.106;11.708;2022-07-22T00:09:30;19.33;;;17.63;;
1831;SDS011;1680;48.106;11.708;2022-07-22T00:11:58;19.53;;;17.83;;
1831;SDS011;1680;48.106;11.708;2022-07-22T00:14:25;18.83;;;17.03;;
1831;SDS011;1680;48.106;11.708;2022-07-22T00:16:52;19.20;;;17.40;;
1831;SDS011;1680;48.106;11.708;2022-07-22T00:19:19;17.83;;;16.23;;
1831;SDS011;1680;48.106;11.708;2022-07-22T00:21:50;19.00;;;17.40;;
1831;SDS011;1680;48.106;11.708;2022-07-22T00:24:17;18.70;;;17.10;;
1831;SDS011;1680;48.106;11.708;2022-07-22T00:26:44;19.60;;;17.67;;
1831;SDS011;1680;48.106;11.708;2022-07-22T00:29:12;17.13;;;15.63;;
1831;SDS011;1680;48.106;11.708;2022-07-22T00:31:39;19.37;;;17.70;;
1831;SDS011;1680;48.106;11.708;2022-07-22T00:34:06;18.47;;;16.87;;
1831;SDS011;1680;48.106;11.708;2022-07-22T00:36:32;18.73;;;17.00;;
1831;SDS011;1680;48.106;11.708;2022-07-22T00:38:59;17.37;;;15.87;;
1831;SDS011;1680;48.106;11.708;2022-07-22T00:41:26;17.90;;;16.20;;
1831;SDS011;1680;48.106;11.708;2022-07-22T00:43:53;16.47;;;15.17;;
1831;SDS011;1680;48.106;11.708;2022-07-22T00:46:23;17.53;;;16.00;;
1831;SDS011;1680;48.106;11.708;2022-07-22T00:48:50;18.10;;;16.40;;
1831;SDS011;1680;48.106;11.708;2022-07-22T00:51:17;17.10;;;15.70;;
1831;SDS011;1680;48.106;11.708;2022-07-22T00:53:45;16.53;;;15.07;;
1831;SDS011;1680;48.106;11.708;2022-07-22T00:56:13;19.00;;;17.40;;
1831;SDS011;1680;48.106;11.708;2022-07-22T00:58:41;17.70;;;16.10;;
1831;SDS011;1680;48.106;11.708;2022-07-22T01:01:11;17.73;;;16.13;;
1831;SDS011;1680;48.106;11.708;2022-07-22T01:03:40;17.07;;;15.57;;
1831;SDS011;1680;48.106;11.708;2022-07-22T01:06:07;18.30;;;16.60;;
1831;SDS011;1680;48.106;11.708;2022-07-22T01:08:34;17.70;;;16.20;;
1831;SDS011;1680;48.106;11.708;2022-07-22T01:11:08;17.20;;;15.80;;
1831;SDS011;1680;48.106;11.708;2022-07-22T01:13:35;16.87;;;15.27;;
1831;SDS011;1680;48.106;11.708;2022-07-22T01:16:03;17.53;;;16.03;;
1831;SDS011;1680;48.106;11.708;2022-07-22T01:18:30;17.57;;;16.07;;
1831;SDS011;1680;48.106;11.708;2022-07-22T01:20:58;17.03;;;15.53;;
1831;SDS011;1680;48.106;11.708;2022-07-22T01:23:25;16.77;;;15.37;;
1831;SDS011;1680;48.106;11.708;2022-07-22T01:25:52;17.40;;;15.90;;
1831;SDS011;1680;48.106;11.708;2022-07-22T01:28:21;17.20;;;15.60;;
1831;SDS011;1680;48.106;11.708;2022-07-22T01:30:47;17.27;;;15.70;;
1831;SDS011;1680;48.106;11.708;2022-07-22T01:33:15;17.10;;;15.63;;
1831;SDS011;1680;48.106;11.708;2022-07-22T01:35:41;17.70;;;16.20;;
1831;SDS011;1680;48.106;11.708;2022-07-22T01:38:10;17.27;;;15.77;;
1831;SDS011;1680;48.106;11.708;2022-07-22T01:40:36;16.97;;;15.47;;
1831;SDS011;1680;48.106;11.708;2022-07-22T01:43:03;17.00;;;15.50;;
1831;SDS011;1680;48.106;11.708;2022-07-22T01:45:30;17.90;;;16.40;;
1831;SDS011;1680;48.106;11.708;2022-07-22T01:47:57;17.33;;;15.83;;
1831;SDS011;1680;48.106;11.708;2022-07-22T01:50:24;16.60;;;15.00;;
1831;SDS011;1680;48.106;11.708;2022-07-22T01:52:50;14.83;;;13.63;;
1831;SDS011;1680;48.106;11.708;2022-07-22T01:55:19;17.90;;;16.40;;
1831;SDS011;1680;48.106;11.708;2022-07-22T01:57:46;15.83;;;14.23;;
1831;SDS011;1680;48.106;11.708;2022-07-22T02:00:13;16.93;;;15.47;;
1831;SDS011;1680;48.106;11.708;2022-07-22T02:02:40;15.60;;;14.20;;
1831;SDS011;1680;48.106;11.708;2022-07-22T02:05:07;14.93;;;13.53;;
1831;SDS011;1680;48.106;11.708;2022-07-22T02:07:34;15.80;;;14.47;;
1831;SDS011;1680;48.106;11.708;2022-07-22T02:10:01;16.70;;;15.20;;
1831;SDS011;1680;48.106;11.708;2022-07-22T02:12:31;16.73;;;15.23;;
1831;SDS011;1680;48.106;11.708;2022-07-22T02:14:58;16.07;;;14.77;;
1831;SDS011;1680;48.106;11.708;2022-07-22T02:17:25;16.50;;;15.00;;
1831;SDS011;1680;48.106;11.708;2022-07-22T02:19:52;16.13;;;14.60;;
1831;SDS011;1680;48.106;11.708;2022-07-22T02:22:18;16.83;;;15.43;;
1831;SDS011;1680;48.106;11.708;2022-07-22T02:24:45;16.73;;;15.13;;
1831;SDS011;1680;48.106;11.708;2022-07-22T02:27:12;16.43;;;15.03;;
1831;SDS011;1680;48.106;11.708;2022-07-22T02:29:40;16.50;;;15.10;;
1831;SDS011;1680;48.106;11.708;2022-07-22T02:32:07;16.00;;;14.50;;
1831;SDS011;1680;48.106;11.708;2022-07-22T02:34:33;16.50;;;15.00;;
1831;SDS011;1680;48.106;11.708;2022-07-22T02:37:00;16.40;;;14.90;;
1831;SDS011;1680;48.106;11.708;2022-07-22T02:39:26;16.70;;;15.30;;
1831;SDS011;1680;48.106;11.708;2022-07-22T02:41:53;16.67;;;15.17;;
1831;SDS011;1680;48.106;11.708;2022-07-22T02:44:20;16.30;;;14.90;;
1831;SDS011;1680;48.106;11.708;2022-07-22T02:46:48;16.70;;;15.10;;
1831;SDS011;1680;48.106;11.708;2022-07-22T02:49:15;15.73;;;14.47;;
1831;SDS011;1680;48.106;11.708;2022-07-22T02:51:41;15.57;;;14.17;;
1831;SDS011;1680;48.106;11.708;2022-07-22T02:54:08;16.93;;;15.43;;
1831;SDS011;1680;48.106;11.708;2022-07-22T02:56:34;15.77;;;14.27;;
1831;SDS011;1680;48.106;11.708;2022-07-22T02:59:01;15.93;;;14.50;;
1831;SDS011;1680;48.106;11.708;2022-07-22T03:01:28;15.90;;;14.30;;
1831;SDS011;1680;48.106;11.708;2022-07-22T03:03:56;16.60;;;15.10;;
1831;SDS011;1680;48.106;11.708;2022-07-22T03:06:23;16.77;;;15.30;;
1831;SDS011;1680;48.106;11.708;2022-07-22T03:08:49;16.07;;;14.57;;
1831;SDS011;1680;48.106;11.708;2022-07-22T03:11:16;16.10;;;14.70;;
1831;SDS011;1680;48.106;11.708;2022-07-22T03:13:43;16.63;;;15.13;;
1831;SDS011;1680;48.106;11.708;2022-07-22T03:16:09;15.30;;;14.07;;
1831;SDS011;1680;48.106;11.708;2022-07-22T03:18:36;15.97;;;14.53;;
1831;SDS011;1680;48.106;11.708;2022-07-22T03:21:04;16.37;;;14.83;;
1831;SDS011;1680;48.106;11.708;2022-07-22T03:23:31;16.30;;;14.80;;
1831;SDS011;1680;48.106;11.708;2022-07-22T03:25:57;17.70;;;16.17;;
1831;SDS011;1680;48.106;11.708;2022-07-22T03:28:24;15.53;;;14.23;;
1831;SDS011;1680;48.106;11.708;2022-07-22T03:30:52;15.77;;;14.27;;
1831;SDS011;1680;48.106;11.708;2022-07-22T03:33:19;16.10;;;14.70;;
1831;SDS011;1680;48.106;11.708;2022-07-22T03:35:45;15.63;;;14.30;;
1831;SDS011;1680;48.106;11.708;2022-07-22T03:38:13;15.27;;;13.97;;
1831;SDS011;1680;48.106;11.708;2022-07-22T03:40:40;14.67;;;13.47;;
1831;SDS011;1680;48.106;11.708;2022-07-22T03:43:07;16.07;;;14.67;;
1831;SDS011;1680;48.106;11.708;2022-07-22T03:45:33;15.83;;;14.33;;
1831;SDS011;1680;48.106;11.708;2022-07-22T03:48:00;15.63;;;14.23;;
1831;SDS011;1680;48.106;11.708;2022-07-22T03:50:27;15.63;;;14.23;;
1831;SDS011;1680;48.106;11.708;2022-07-22T03:52:53;15.60;;;14.20;;
1831;SDS011;1680;48.106;11.708;2022-07-22T03:55:21;16.17;;;14.67;;
1831;SDS011;1680;48.106;11.708;2022-07-22T03:57:48;15.90;;;14.30;;
1831;SDS011;1680;48.106;11.708;2022-07-22T04:00:15;15.80;;;14.50;;
1831;SDS011;1680;48.106;11.708;2022-07-22T04:02:42;15.97;;;14.57;;
1831;SDS011;1680;48.106;11.708;2022-07-22T04:05:09;15.27;;;13.97;;
1831;SDS011;1680;48.106;11.708;2022-07-22T04:07:35;14.07;;;12.87;;
1831;SDS011;1680;48.106;11.708;2022-07-22T04:10:02;15.90;;;14.60;;
1831;SDS011;1680;48.106;11.708;2022-07-22T04:12:34;16.80;;;15.27;;
1831;SDS011;1680;48.106;11.708;2022-07-22T04:15:02;16.50;;;15.10;;
1831;SDS011;1680;48.106;11.708;2022-07-22T04:17:29;15.63;;;14.30;;
1831;SDS011;1680;48.106;11.708;2022-07-22T04:19:56;15.97;;;14.57;;
1831;SDS011;1680;48.106;11.708;2022-07-22T04:22:24;15.07;;;13.67;;
1831;SDS011;1680;48.106;11.708;2022-07-22T04:24:51;15.93;;;14.43;;
1831;SDS011;1680;48.106;11.708;2022-07-22T04:27:18;16.70;;;15.20;;
1831;SDS011;1680;48.106;11.708;2022-07-22T04:29:46;16.20;;;14.80;;
1831;SDS011;1680;48.106;11.708;2022-07-22T04:32:13;15.33;;;13.83;;
1831;SDS011;1680;48.106;11.708;2022-07-22T04:34:39;16.37;;;14.97;;
1831;SDS011;1680;48.106;11.708;2022-07-22T04:37:06;17.20;;;15.70;;
1831;SDS011;1680;48.106;11.708;2022-07-22T04:39:33;16.57;;;15.17;;
1831;SDS011;1680;48.106;11.708;2022-07-22T04:42:00;16.47;;;14.87;;
1831;SDS011;1680;48.106;11.708;2022-07-22T04:44:26;16.93;;;15.33;;
1831;SDS011;1680;48.106;11.708;2022-07-22T04:46:54;16.50;;;14.90;;
1831;SDS011;1680;48.106;11.708;2022-07-22T04:49:21;17.53;;;15.97;;
1831;SDS011;1680;48.106;11.708;2022-07-22T04:51:48;17.30;;;15.70;;
1831;SDS011;1680;48.106;11.708;2022-07-22T04:54:14;17.40;;;15.80;;
1831;SDS011;1680;48.106;11.708;2022-07-22T04:56:41;16.87;;;15.27;;
1831;SDS011;1680;48.106;11.708;2022-07-22T04:59:07;16.67;;;15.07;;
1831;SDS011;1680;48.106;11.708;2022-07-22T05:01:34;16.57;;;15.00;;
1831;SDS011;1680;48.106;11.708;2022-07-22T05:04:02;15.90;;;14.50;;
1831;SDS011;1680;48.106;11.708;2022-07-22T05:06:30;16.27;;;14.80;;
1831;SDS011;1680;48.106;11.708;2022-07-22T05:08:56;17.80;;;16.20;;
1831;SDS011;1680;48.106;11.708;2022-07-22T05:11:23;16.37;;;14.87;;
1831;SDS011;1680;48.106;11.708;2022-07-22T05:13:50;15.97;;;14.47;;
1831;SDS011;1680;48.106;11.708;2022-07-22T05:16:16;16.27;;;14.67;;
1831;SDS011;1680;48.106;11.708;2022-07-22T05:18:43;16.63;;;15.13;;
1831;SDS011;1680;48.106;11.708;2022-07-22T05:21:11;16.50;;;15.10;;
1831;SDS011;1680;48.106;11.708;2022-07-22T05:23:38;16.60;;;15.10;;
1831;SDS011;1680;48.106;11.708;2022-07-22T05:26:05;16.33;;;14.80;;
1831;SDS011;1680;48.106;11.708;2022-07-22T05:28:31;16.77;;;15.37;;
1831;SDS011;1680;48.106;11.708;2022-07-22T05:30:59;17.10;;;15.60;;
1831;SDS011;1680;48.106;11.708;2022-07-22T05:33:26;16.87;;;15.37;;
1831;SDS011;1680;48.106;11.708;2022-07-22T05:35:53;17.00;;;15.50;;
1831;SDS011;1680;48.106;11.708;2022-07-22T05:38:21;16.97;;;15.47;;
1831;SDS011;1680;48.106;11.708;2022-07-22T05:40:48;17.00;;;15.40;;
1831;SDS011;1680;48.106;11.708;2022-07-22T05:43:14;17.80;;;16.10;;
1831;SDS011;1680;48.106;11.708;2022-07-22T05:45:41;18.60;;;17.00;;
1831;SDS011;1680;48.106;11.708;2022-07-22T05:48:08;16.57;;;15.07;;
1831;SDS011;1680;48.106;11.708;2022-07-22T05:50:35;16.30;;;14.80;;
1831;SDS011;1680;48.106;11.708;2022-07-22T05:53:02;17.33;;;15.90;;
1831;SDS011;1680;48.106;11.708;2022-07-22T05:55:30;16.47;;;15.03;;
1831;SDS011;1680;48.106;11.708;2022-07-22T05:57:57;16.23;;;14.83;;
1831;SDS011;1680;48.106;11.708;2022-07-22T06:00:24;16.57;;;15.10;;
1831;SDS011;1680;48.106;11.708;2022-07-22T06:02:50;16.93;;;15.33;;
1831;SDS011;1680;48.106;11.708;2022-07-22T06:05:17;19.10;;;17.40;;
1831;SDS011;1680;48.106;11.708;2022-07-22T06:07:44;16.33;;;14.70;;
1831;SDS011;1680;48.106;11.708;2022-07-22T06:10:11;16.27;;;14.77;;
1831;SDS011;1680;48.106;11.708;2022-07-22T06:12:39;17.10;;;15.50;;
1831;SDS011;1680;48.106;11.708;2022-07-22T06:15:06;18.00;;;16.50;;
1831;SDS011;1680;48.106;11.708;2022-07-22T06:17:33;16.47;;;15.07;;
1831;SDS011;1680;48.106;11.708;2022-07-22T06:19:59;16.40;;;14.93;;
1831;SDS011;1680;48.106;11.708;2022-07-22T06:22:26;18.07;;;16.47;;
1831;SDS011;1680;48.106;11.708;2022-07-22T06:24:53;16.30;;;14.70;;
1831;SDS011;1680;48.106;11.708;2022-07-22T06:27:19;16.40;;;14.90;;
1831;SDS011;1680;48.106;11.708;2022-07-22T06:29:47;16.60;;;15.10;;
1831;SDS011;1680;48.106;11.708;2022-07-22T06:32:14;16.47;;;15.07;;
1831;SDS011;1680;48.106;11.708;2022-07-22T06:34:41;15.07;;;13.87;;
1831;SDS011;1680;48.106;11.708;2022-07-22T06:37:07;16.67;;;15.07;;
1831;SDS011;1680;48.106;11.708;2022-07-22T06:39:34;16.60;;;14.93;;
1831;SDS011;1680;48.106;11.708;2022-07-22T06:42:01;17.20;;;15.60;;
1831;SDS011;1680;48.106;11.708;2022-07-22T06:44:28;15.77;;;14.37;;
1831;SDS011;1680;48.106;11.708;2022-07-22T06:46:56;15.03;;;13.70;;
1831;SDS011;1680;48.106;11.708;2022-07-22T06:49:22;14.90;;;13.60;;
1831;SDS011;1680;48.106;11.708;2022-07-22T06:51:49;16.03;;;14.63;;
1831;SDS011;1680;48.106;11.708;2022-07-22T06:54:16;15.40;;;14.10;;
1831;SDS011;1680;48.106;11.708;2022-07-22T06:56:44;15.20;;;13.90;;
1831;SDS011;1680;48.106;11.708;2022-07-22T06:59:10;15.20;;;13.90;;
1831;SDS011;1680;48.106;11.708;2022-07-22T07:01:37;14.83;;;13.30;;
1831;SDS011;1680;48.106;11.708;2022-07-22T07:04:05;16.13;;;14.53;;
1831;SDS011;1680;48.106;11.708;2022-07-22T07:06:32;14.97;;;13.57;;
1831;SDS011;1680;48.106;11.708;2022-07-22T07:08:58;15.23;;;13.83;;
1831;SDS011;1680;48.106;11.708;2022-07-22T07:11:25;14.33;;;13.10;;
1831;SDS011;1680;48.106;11.708;2022-07-22T07:13:52;14.80;;;13.47;;
1831;SDS011;1680;48.106;11.708;2022-07-22T07:16:18;14.10;;;12.87;;
1831;SDS011;1680;48.106;11.708;2022-07-22T07:18:45;15.60;;;14.20;;
1831;SDS011;1680;48.106;11.708;2022-07-22T07:21:13;16.90;;;15.20;;
1831;SDS011;1680;48.106;11.708;2022-07-22T07:23:40;16.57;;;15.07;;
1831;SDS011;1680;48.106;11.708;2022-07-22T07:26:07;19.43;;;17.50;;
1831;SDS011;1680;48.106;11.708;2022-07-22T07:28:34;17.70;;;16.10;;
1831;SDS011;1680;48.106;11.708;2022-07-22T07:31:01;17.27;;;15.80;;
1831;SDS011;1680;48.106;11.708;2022-07-22T07:33:28;17.03;;;15.60;;
1831;SDS011;1680;48.106;11.708;2022-07-22T07:35:55;18.23;;;16.50;;
1831;SDS011;1680;48.106;11.708;2022-07-22T07:38:23;18.57;;;17.03;;
1831;SDS011;1680;48.106;11.708;2022-07-22T07:40:50;18.37;;;16.77;;
1831;SDS011;1680;48.106;11.708;2022-07-22T07:43:16;16.20;;;14.80;;
1831;SDS011;1680;48.106;11.708;2022-07-22T07:45:43;16.27;;;14.70;;
1831;SDS011;1680;48.106;11.708;2022-07-22T07:48:10;14.77;;;13.57;;
1831;SDS011;1680;48.106;11.708;2022-07-22T07:50:37;16.50;;;15.10;;
1831;SDS011;1680;48.106;11.708;2022-07-22T07:53:03;14.27;;;12.97;;
1831;SDS011;1680;48.106;11.708;2022-07-22T07:55:32;14.43;;;13.13;;
1831;SDS011;1680;48.106;11.708;2022-07-22T07:58:01;14.97;;;13.67;;
1831;SDS011;1680;48.106;11.708;2022-07-22T08:00:28;14.33;;;13.13;;
1831;SDS011;1680;48.106;11.708;2022-07-22T08:02:57;13.63;;;12.50;;
1831;SDS011;1680;48.106;11.708;2022-07-22T08:05:24;13.57;;;12.47;;
1831;SDS011;1680;48.106;11.708;2022-07-22T08:07:51;12.50;;;11.50;;
1831;SDS011;1680;48.106;11.708;2022-07-22T08:10:18;12.97;;;11.90;;
1831;SDS011;1680;48.106;11.708;2022-07-22T08:12:47;12.63;;;11.60;;
1831;SDS011;1680;48.106;11.708;2022-07-22T08:15:14;13.10;;;11.97;;
1831;SDS011;1680;48.106;11.708;2022-07-22T08:17:41;12.73;;;11.63;;
1831;SDS011;1680;48.106;11.708;2022-07-22T08:20:08;12.33;;;11.30;;
1831;SDS011;1680;48.106;11.708;2022-07-22T08:22:35;12.97;;;11.77;;
1831;SDS011;1680;48.106;11.708;2022-07-22T08:25:02;12.43;;;11.30;;
1831;SDS011;1680;48.106;11.708;2022-07-22T08:27:29;11.77;;;10.77;;
1831;SDS011;1680;48.106;11.708;2022-07-22T08:29:57;12.13;;;10.93;;
1831;SDS011;1680;48.106;11.708;2022-07-22T08:32:23;12.10;;;11.20;;
1831;SDS011;1680;48.106;11.708;2022-07-22T08:34:50;11.23;;;10.33;;
1831;SDS011;1680;48.106;11.708;2022-07-22T08:37:17;11.40;;;10.50;;
1831;SDS011;1680;48.106;11.708;2022-07-22T08:39:44;12.47;;;11.37;;
1831;SDS011;1680;48.106;11.708;2022-07-22T08:42:11;11.27;;;10.17;;
1831;SDS011;1680;48.106;11.708;2022-07-22T08:44:38;11.27;;;10.43;;
1831;SDS011;1680;48.106;11.708;2022-07-22T08:47:07;10.80;;;9.90;;
1831;SDS011;1680;48.106;11.708;2022-07-22T08:49:33;11.60;;;10.63;;
1831;SDS011;1680;48.106;11.708;2022-07-22T08:52:00;11.00;;;9.90;;
1831;SDS011;1680;48.106;11.708;2022-07-22T08:54:27;10.97;;;10.17;;
1831;SDS011;1680;48.106;11.708;2022-07-22T08:56:54;10.50;;;9.60;;
1831;SDS011;1680;48.106;11.708;2022-07-22T08:59:21;10.57;;;9.77;;
1831;SDS011;1680;48.106;11.708;2022-07-22T09:02:04;10.07;;;9.37;;
1831;SDS011;1680;48.106;11.708;2022-07-22T09:04:33;10.83;;;10.03;;
1831;SDS011;1680;48.106;11.708;2022-07-22T09:07:22;10.43;;;9.43;;
1831;SDS011;1680;48.106;11.708;2022-07-22T09:09:50;10.10;;;9.30;;
1831;SDS011;1680;48.106;11.708;2022-07-22T09:12:16;9.60;;;8.90;;
1831;SDS011;1680;48.106;11.708;2022-07-22T09:14:45;11.00;;;10.10;;
1831;SDS011;1680;48.106;11.708;2022-07-22T09:17:23;10.23;;;9.40;;
1831;SDS011;1680;48.106;11.708;2022-07-22T09:19:53;10.40;;;9.50;;
1831;SDS011;1680;48.106;11.708;2022-07-22T09:22:33;10.03;;;9.20;;
1831;SDS011;1680;48.106;11.708;2022-07-22T09:27:52;10.17;;;9.37;;
1831;SDS011;1680;48.106;11.708;2022-07-22T09:30:21;9.97;;;9.17;;
1831;SDS011;1680;48.106;11.708;2022-07-22T09:32:50;10.40;;;9.40;;
1831;SDS011;1680;48.106;11.708;2022-07-22T09:35:19;10.30;;;9.50;;
1831;SDS011;1680;48.106;11.708;2022-07-22T09:37:47;10.77;;;9.87;;
1831;SDS011;1680;48.106;11.708;2022-07-22T09:40:17;9.67;;;8.97;;
1831;SDS011;1680;48.106;11.708;2022-07-22T09:42:46;10.80;;;9.90;;
1831;SDS011;1680;48.106;11.708;2022-07-22T09:45:14;9.37;;;8.70;;
1831;SDS011;1680;48.106;11.708;2022-07-22T09:47:41;9.10;;;8.40;;
1831;SDS011;1680;48.106;11.708;2022-07-22T09:50:20;9.30;;;8.60;;
1831;SDS011;1680;48.106;11.708;2022-07-22T09:52:48;9.33;;;8.63;;
1831;SDS011;1680;48.106;11.708;2022-07-22T09:55:16;9.40;;;8.60;;
1831;SDS011;1680;48.106;11.708;2022-07-22T09:57:45;9.50;;;8.80;;
1831;SDS011;1680;48.106;11.708;2022-07-22T10:00:12;10.17;;;9.27;;
1831;SDS011;1680;48.106;11.708;2022-07-22T10:02:44;10.30;;;9.60;;
1831;SDS011;1680;48.106;11.708;2022-07-22T10:05:13;9.17;;;8.47;;
1831;SDS011;1680;48.106;11.708;2022-07-22T10:07:42;10.50;;;9.50;;
1831;SDS011;1680;48.106;11.708;2022-07-22T10:10:10;10.53;;;9.63;;
1831;SDS011;1680;48.106;11.708;2022-07-22T10:12:39;10.00;;;9.00;;
1831;SDS011;1680;48.106;11.708;2022-07-22T10:15:07;10.87;;;9.97;;
1831;SDS011;1680;48.106;11.708;2022-07-22T10:17:35;12.13;;;10.17;;
1831;SDS011;1680;48.106;11.708;2022-07-22T10:20:04;10.77;;;9.87;;
1831;SDS011;1680;48.106;11.708;2022-07-22T10:22:47;10.50;;;9.70;;
1831;SDS011;1680;48.106;11.708;2022-07-22T10:25:18;9.90;;;9.20;;
1831;SDS011;1680;48.106;11.708;2022-07-22T10:27:46;10.77;;;9.87;;
1831;SDS011;1680;48.106;11.708;2022-07-22T10:30:15;10.27;;;9.37;;
1831;SDS011;1680;48.106;11.708;2022-07-22T10:32:43;10.10;;;9.30;;
1831;SDS011;1680;48.106;11.708;2022-07-22T10:35:21;10.43;;;9.53;;
1831;SDS011;1680;48.106;11.708;2022-07-22T10:37:54;10.83;;;9.93;;
1831;SDS011;1680;48.106;11.708;2022-07-22T10:40:23;10.40;;;9.60;;
1831;SDS011;1680;48.106;11.708;2022-07-22T10:43:08;10.10;;;9.40;;
1831;SDS011;1680;48.106;11.708;2022-07-22T10:45:37;10.30;;;9.60;;
1831;SDS011;1680;48.106;11.708;2022-07-22T10:48:06;10.63;;;9.73;;
1831;SDS011;1680;48.106;11.708;2022-07-22T10:53:41;10.00;;;9.27;;
1831;SDS011;1680;48.106;11.708;2022-07-22T10:56:20;10.13;;;9.33;;
1831;SDS011;1680;48.106;11.708;2022-07-22T10:58:57;10.37;;;9.57;;
1831;SDS011;1680;48.106;11.708;2022-07-22T11:01:35;11.10;;;10.17;;
1831;SDS011;1680;48.106;11.708;2022-07-22T11:04:10;11.00;;;10.00;;
1831;SDS011;1680;48.106;11.708;2022-07-22T11:06:40;9.83;;;9.03;;
1831;SDS011;1680;48.106;11.708;2022-07-22T11:09:09;10.20;;;9.40;;
1831;SDS011;1680;48.106;11.708;2022-07-22T11:11:38;9.67;;;8.87;;
1831;SDS011;1680;48.106;11.708;2022-07-22T11:14:16;10.33;;;9.53;;
1831;SDS011;1680;48.106;11.708;2022-07-22T11:16:46;10.93;;;9.93;;
1831;SDS011;1680;48.106;11.708;2022-07-22T11:19:14;10.37;;;9.37;;
1831;SDS011;1680;48.106;11.708;2022-07-22T11:21:48;9.47;;;8.70;;
1831;SDS011;1680;48.106;11.708;2022-07-22T11:24:18;10.73;;;9.87;;
1831;SDS011;1680;48.106;11.708;2022-07-22T11:26:46;10.37;;;9.67;;
1831;SDS011;1680;48.106;11.708;2022-07-22T11:29:15;11.10;;;10.20;;
1831;SDS011;1680;48.106;11.708;2022-07-22T11:31:43;10.13;;;9.43;;
1831;SDS011;1680;48.106;11.708;2022-07-22T11:34:10;11.03;;;10.10;;
1831;SDS011;1680;48.106;11.708;2022-07-22T11:36:38;10.73;;;10.03;;
1831;SDS011;1680;48.106;11.708;2022-07-22T11:39:07;9.83;;;9.13;;
1831;SDS011;1680;48.106;11.708;2022-07-22T11:41:36;10.03;;;9.20;;
1831;SDS011;1680;48.106;11.708;2022-07-22T11:44:04;10.43;;;9.73;;
1831;SDS011;1680;48.106;11.708;2022-07-22T11:46:35;11.50;;;10.63;;
1831;SDS011;1680;48.106;11.708;2022-07-22T11:49:03;10.17;;;9.40;;
1831;SDS011;1680;48.106;11.708;2022-07-22T11:51:30;10.73;;;9.97;;
1831;SDS011;1680;48.106;11.708;2022-07-22T11:53:58;9.70;;;9.00;;
1831;SDS011;1680;48.106;11.708;2022-07-22T11:56:25;10.50;;;9.70;;
1831;SDS011;1680;48.106;11.708;2022-07-22T11:58:54;10.20;;;9.40;;
1831;SDS011;1680;48.106;11.708;2022-07-22T12:01:22;11.07;;;10.17;;
1831;SDS011;1680;48.106;11.708;2022-07-22T12:03:52;9.77;;;8.97;;
1831;SDS011;1680;48.106;11.708;2022-07-22T12:06:20;11.27;;;10.17;;
1831;SDS011;1680;48.106;11.708;2022-07-22T12:08:49;11.00;;;10.20;;
1831;SDS011;1680;48.106;11.708;2022-07-22T12:11:17;10.77;;;9.97;;
1831;SDS011;1680;48.106;11.708;2022-07-22T12:13:46;11.33;;;10.33;;
1831;SDS011;1680;48.106;11.708;2022-07-22T12:16:20;11.17;;;10.27;;
1831;SDS011;1680;48.106;11.708;2022-07-22T12:18:52;10.87;;;10.07;;
1831;SDS011;1680;48.106;11.708;2022-07-22T12:21:21;11.77;;;10.77;;
1831;SDS011;1680;48.106;11.708;2022-07-22T12:23:50;10.93;;;9.90;;
1831;SDS011;1680;48.106;11.708;2022-07-22T12:26:18;11.27;;;10.47;;
1831;SDS011;1680;48.106;11.708;2022-07-22T12:28:45;11.77;;;10.87;;
1831;SDS011;1680;48.106;11.708;2022-07-22T12:31:12;11.10;;;10.40;;
1831;SDS011;1680;48.106;11.708;2022-07-22T12:33:47;11.47;;;10.67;;
1831;SDS011;1680;48.106;11.708;2022-07-22T12:36:14;11.23;;;10.33;;
1831;SDS011;1680;48.106;11.708;2022-07-22T12:38:41;12.00;;;11.07;;
1831;SDS011;1680;48.106;11.708;2022-07-22T12:41:24;11.53;;;10.73;;
1831;SDS011;1680;48.106;11.708;2022-07-22T12:43:51;11.80;;;10.90;;
1831;SDS011;1680;48.106;11.708;2022-07-22T12:46:18;12.30;;;11.40;;
1831;SDS011;1680;48.106;11.708;2022-07-22T12:48:52;12.23;;;11.10;;
1831;SDS011;1680;48.106;11.708;2022-07-22T12:51:19;12.67;;;11.60;;
1831;SDS011;1680;48.106;11.708;2022-07-22T12:53:46;12.00;;;10.93;;
1831;SDS011;1680;48.106;11.708;2022-07-22T12:56:13;10.70;;;9.90;;
1831;SDS011;1680;48.106;11.708;2022-07-22T12:58:39;11.47;;;10.57;;
1831;SDS011;1680;48.106;11.708;2022-07-22T13:01:07;11.03;;;10.13;;
1831;SDS011;1680;48.106;11.708;2022-07-22T13:03:34;11.97;;;10.80;;
1831;SDS011;1680;48.106;11.708;2022-07-22T13:06:03;12.10;;;11.20;;
1831;SDS011;1680;48.106;11.708;2022-07-22T13:08:32;11.63;;;10.60;;
1831;SDS011;1680;48.106;11.708;2022-07-22T13:10:58;10.90;;;10.03;;
1831;SDS011;1680;48.106;11.708;2022-07-22T13:13:25;11.57;;;10.57;;
1831;SDS011;1680;48.106;11.708;2022-07-22T13:15:52;11.73;;;10.73;;
1831;SDS011;1680;48.106;11.708;2022-07-22T13:18:20;11.10;;;10.30;;
1831;SDS011;1680;48.106;11.708;2022-07-22T13:20:47;12.17;;;11.13;;
1831;SDS011;1680;48.106;11.708;2022-07-22T13:23:15;11.47;;;10.47;;
1831;SDS011;1680;48.106;11.708;2022-07-22T13:25:41;11.17;;;10.37;;
1831;SDS011;1680;48.106;11.708;2022-07-22T13:28:08;11.33;;;10.53;;
1831;SDS011;1680;48.106;11.708;2022-07-22T13:30:35;11.40;;;10.30;;
1831;SDS011;1680;48.106;11.708;2022-07-22T13:33:02;11.97;;;10.73;;
1831;SDS011;1680;48.106;11.708;2022-07-22T13:35:29;12.70;;;11.67;;
1831;SDS011;1680;48.106;11.708;2022-07-22T13:37:56;11.03;;;10.17;;
1831;SDS011;1680;48.106;11.708;2022-07-22T13:40:24;11.60;;;10.80;;
1831;SDS011;1680;48.106;11.708;2022-07-22T13:42:51;11.50;;;10.60;;
1831;SDS011;1680;48.106;11.708;2022-07-22T13:45:18;12.10;;;11.20;;
1831;SDS011;1680;48.106;11.708;2022-07-22T13:47:45;12.50;;;11.40;;
1831;SDS011;1680;48.106;11.708;2022-07-22T13:50:11;13.10;;;12.03;;
1831;SDS011;1680;48.106;11.708;2022-07-22T13:52:38;11.90;;;11.10;;
1831;SDS011;1680;48.106;11.708;2022-07-22T13:55:05;11.27;;;10.37;;
1831;SDS011;1680;48.106;11.708;2022-07-22T13:57:34;11.97;;;11.10;;
1831;SDS011;1680;48.106;11.708;2022-07-22T14:00:01;11.83;;;10.93;;
1831;SDS011;1680;48.106;11.708;2022-07-22T14:02:28;11.80;;;10.90;;
1831;SDS011;1680;48.106;11.708;2022-07-22T14:04:55;12.80;;;11.90;;
1831;SDS011;1680;48.106;11.708;2022-07-22T14:07:22;12.00;;;11.10;;
1831;SDS011;1680;48.106;11.708;2022-07-22T14:09:48;12.33;;;11.47;;
1831;SDS011;1680;48.106;11.708;2022-07-22T14:12:15;13.87;;;12.97;;
1831;SDS011;1680;48.106;11.708;2022-07-22T14:14:43;12.70;;;11.60;;
1831;SDS011;1680;48.106;11.708;2022-07-22T14:17:10;11.43;;;10.63;;
1831;SDS011;1680;48.106;11.708;2022-07-22T14:19:37;12.13;;;11.23;;
1831;SDS011;1680;48.106;11.708;2022-07-22T14:22:03;12.13;;;11.23;;
1831;SDS011;1680;48.106;11.708;2022-07-22T14:24:30;12.33;;;11.33;;
1831;SDS011;1680;48.106;11.708;2022-07-22T14:26:57;13.20;;;11.97;;
1831;SDS011;1680;48.106;11.708;2022-07-22T14:29:23;12.70;;;11.80;;
1831;SDS011;1680;48.106;11.708;2022-07-22T14:31:51;13.00;;;11.97;;
1831;SDS011;1680;48.106;11.708;2022-07-22T14:34:18;12.50;;;11.60;;
1831;SDS011;1680;48.106;11.708;2022-07-22T14:36:45;13.00;;;12.10;;
1831;SDS011;1680;48.106;11.708;2022-07-22T14:39:11;12.27;;;11.47;;
1831;SDS011;1680;48.106;11.708;2022-07-22T14:41:38;13.53;;;12.43;;
1831;SDS011;1680;48.106;11.708;2022-07-22T14:44:05;12.90;;;12.00;;
1831;SDS011;1680;48.106;11.708;2022-07-22T14:46:31;13.30;;;12.13;;
1831;SDS011;1680;48.106;11.708;2022-07-22T14:48:59;12.90;;;12.00;;